Time;durP1;ratioP1;P1;durP2;ratioP2;P2;SDS_P1;SDS_P2;PMS_P1;PMS_P2;Temp;Humidity;BMP_temperature;BMP_pressure;BME280_temperature;BME280_humidity;BME280_pressure;Samples;Min_cycle;Max_cycle;Signal;HPM_P1;HPM_P2
2022/02/04 00:22:26;;;;;;;102.05;24.80;;;6.30;99.90;;;;;;5035868;28;20136;-74
2022/02/04 00:24:39;;;;;;;112.63;24.27;;;6.30;99.90;;;;;;5034748;28;20032;-74
2022/02/04 00:27:10;;;;;;;107.47;26.35;;;6.30;99.90;;;;;;5035415;28;20104;-74
2022/02/04 00:32:23;;;;;;;102.13;23.38;;;6.30;99.90;;;;;;5035650;28;20032;-74
2022/02/04 00:34:55;;;;;;;91.75;22.70;;;6.20;99.90;;;;;;5035228;28;20443;-74
2022/02/04 00:37:35;;;;;;;110.63;23.95;;;6.20;99.90;;;;;;5035582;28;20481;-74
2022/02/04 00:40:10;;;;;;;99.53;22.95;;;6.20;99.90;;;;;;5035382;28;20032;-74
2022/02/04 00:42:36;;;;;;;101.97;23.17;;;6.20;99.90;;;;;;5035372;28;20022;-74
2022/02/04 00:45:16;;;;;;;95.70;23.52;;;6.20;99.90;;;;;;5035042;28;20490;-74
2022/02/04 00:47:48;;;;;;;113.05;22.88;;;6.20;99.90;;;;;;5035322;28;20421;-74
2022/02/04 00:55:43;;;;;;;102.72;22.52;;;6.20;99.90;;;;;;5035153;28;20421;-74
2022/02/04 01:28:20;;;;;;;101.82;22.85;;;6.00;99.90;;;;;;5034242;28;20101;-74
2022/02/04 01:30:45;;;;;;;98.38;22.92;;;6.00;99.90;;;;;;5034073;28;20080;-73
2022/02/04 01:33:13;;;;;;;102.20;25.35;;;6.00;99.90;;;;;;5034411;28;20029;-73
2022/02/04 01:35:38;;;;;;;107.70;22.83;;;6.10;99.90;;;;;;5034114;28;20025;-73
2022/02/04 01:38:04;;;;;;;92.53;23.02;;;6.10;99.90;;;;;;5034047;28;20021;-73
2022/02/04 01:40:30;;;;;;;79.63;22.98;;;6.10;99.90;;;;;;5034420;28;20462;-73
2022/02/04 01:42:55;;;;;;;110.40;24.00;;;6.10;99.90;;;;;;5033943;28;20037;-74
2022/02/04 01:45:21;;;;;;;101.82;22.10;;;6.10;99.90;;;;;;5033913;28;20026;-74
2022/02/04 01:47:55;;;;;;;88.28;19.75;;;6.10;99.90;;;;;;5033872;28;20473;-74
2022/02/04 01:50:26;;;;;;;105.82;23.23;;;6.10;99.90;;;;;;5033766;28;20026;-73
2022/02/04 01:52:55;;;;;;;93.80;20.92;;;6.10;99.90;;;;;;5033816;28;20032;-73
2022/02/04 01:55:22;;;;;;;96.38;24.30;;;6.00;99.90;;;;;;5034031;28;20029;-73
2022/02/04 01:57:49;;;;;;;125.00;25.70;;;6.10;99.90;;;;;;5033706;28;20041;-73
2022/02/04 02:00:15;;;;;;;102.97;25.10;;;6.00;99.90;;;;;;5033629;28;20033;-73
2022/02/04 02:02:41;;;;;;;108.00;27.30;;;6.00;99.90;;;;;;5033635;28;20032;-73
2022/02/04 02:05:07;;;;;;;123.30;27.85;;;6.00;99.90;;;;;;5033895;28;20025;-73
2022/02/04 02:07:40;;;;;;;100.85;28.50;;;6.00;99.90;;;;;;5033572;28;20478;-73
2022/02/04 02:10:10;;;;;;;103.97;28.30;;;6.00;99.90;;;;;;5033459;28;20044;-73
2022/02/04 02:12:47;;;;;;;108.07;27.55;;;6.00;99.90;;;;;;5033823;28;20039;-74
2022/02/04 02:42:33;;;;;;;90.30;28.27;;;6.10;99.90;;;;;;5033531;28;20079;-73
2022/02/04 02:47:48;;;;;;;87.78;27.00;;;6.10;99.90;;;;;;5033460;28;20032;-73
2022/02/04 02:50:47;;;;;;;89.47;28.20;;;6.10;99.90;;;;;;5015667;28;20029;-73
2022/02/04 02:58:34;;;;;;;91.63;29.10;;;6.10;99.90;;;;;;5037687;28;19913;-73
2022/02/04 03:01:03;;;;;;;86.20;29.08;;;6.20;99.90;;;;;;5036905;28;20027;-73
2022/02/04 03:03:32;;;;;;;96.47;30.83;;;6.20;99.90;;;;;;5036978;28;20470;-73
2022/02/04 03:05:58;;;;;;;87.03;30.95;;;6.20;99.90;;;;;;5037216;28;20087;-73
2022/02/04 03:08:25;;;;;;;86.40;28.05;;;6.30;99.90;;;;;;5037270;28;20025;-73
2022/02/04 03:10:55;;;;;;;95.53;30.23;;;6.30;99.90;;;;;;5037094;28;20035;-73
2022/02/04 03:13:31;;;;;;;96.15;32.45;;;6.20;99.90;;;;;;5037117;28;20028;-73
2022/02/04 03:16:00;;;;;;;97.10;31.45;;;6.20;99.90;;;;;;5037324;28;20029;-73
2022/02/04 03:18:29;;;;;;;79.35;28.13;;;6.30;99.90;;;;;;5036698;28;20071;-73
2022/02/04 03:21:00;;;;;;;96.32;30.67;;;6.30;99.90;;;;;;5036588;28;20029;-73
2022/02/04 03:23:28;;;;;;;95.80;31.52;;;6.20;99.90;;;;;;5036670;28;20051;-73
2022/02/04 03:25:59;;;;;;;94.55;31.17;;;6.20;99.90;;;;;;5036570;28;20112;-73
2022/02/04 03:28:28;;;;;;;85.80;30.55;;;6.20;99.90;;;;;;5036626;28;20033;-73
2022/02/04 03:30:56;;;;;;;89.28;31.23;;;6.20;99.90;;;;;;5036409;28;20438;-73
2022/02/04 03:33:25;;;;;;;84.15;30.83;;;6.20;99.90;;;;;;5036415;28;20017;-73
2022/02/04 03:35:50;;;;;;;86.88;34.25;;;6.20;99.90;;;;;;5036375;28;20025;-73
2022/02/04 03:38:16;;;;;;;87.38;32.42;;;6.20;99.90;;;;;;5036289;28;20025;-73
2022/02/04 03:40:42;;;;;;;111.60;33.92;;;6.20;99.90;;;;;;5036331;28;20425;-73
2022/02/04 03:43:07;;;;;;;88.93;33.90;;;6.20;99.90;;;;;;5036143;28;20038;-73
2022/02/04 03:45:33;;;;;;;85.93;34.95;;;6.20;99.90;;;;;;5036475;28;20481;-73
2022/02/04 03:48:00;;;;;;;71.35;34.80;;;6.20;99.90;;;;;;5036134;28;20021;-73
2022/02/04 03:50:26;;;;;;;95.03;36.80;;;6.10;99.90;;;;;;5035972;28;20025;-73
2022/02/04 03:52:51;;;;;;;82.63;34.03;;;6.20;99.90;;;;;;5036052;28;20101;-73
2022/02/04 03:55:17;;;;;;;91.47;36.97;;;6.20;99.90;;;;;;5036000;28;20367;-73
2022/02/04 03:57:43;;;;;;;98.18;35.97;;;6.20;99.90;;;;;;5036228;28;20022;-73
2022/02/04 04:00:12;;;;;;;93.22;34.65;;;6.20;99.90;;;;;;5036049;28;20520;-73
2022/02/04 04:02:38;;;;;;;84.65;35.30;;;6.20;99.90;;;;;;5035874;28;20026;-73
2022/02/04 04:05:04;;;;;;;92.35;35.25;;;6.20;99.90;;;;;;5035159;28;20047;-73
2022/02/04 04:07:30;;;;;;;83.70;33.65;;;6.20;99.90;;;;;;5035792;28;20030;-73
2022/02/04 04:10:04;;;;;;;93.25;38.42;;;6.20;99.90;;;;;;5035868;28;20120;-73
2022/02/04 04:12:29;;;;;;;84.15;33.70;;;6.20;99.90;;;;;;5035976;28;20025;-73
2022/02/04 04:14:57;;;;;;;87.50;33.13;;;6.20;99.90;;;;;;5035654;28;20060;-73
2022/02/04 04:17:23;;;;;;;78.53;34.63;;;6.20;99.90;;;;;;5035887;28;20484;-73
2022/02/04 04:19:48;;;;;;;84.78;33.80;;;6.30;99.90;;;;;;5035437;28;20101;-73
2022/02/04 04:22:14;;;;;;;70.05;30.95;;;6.30;99.90;;;;;;5035775;28;20165;-73
2022/02/04 04:24:39;;;;;;;90.78;33.42;;;6.30;99.90;;;;;;5017755;28;20496;-73
2022/02/04 04:27:05;;;;;;;83.40;33.75;;;6.30;99.90;;;;;;5035564;28;20051;-73
2022/02/04 04:29:30;;;;;;;71.70;32.60;;;6.40;99.90;;;;;;5035503;28;20458;-73
2022/02/04 04:31:56;;;;;;;80.55;32.00;;;6.30;99.90;;;;;;5035339;28;20049;-73
2022/02/04 04:34:22;;;;;;;81.03;35.95;;;6.30;99.90;;;;;;5035547;28;20407;-73
2022/02/04 04:36:47;;;;;;;82.80;34.97;;;6.30;99.90;;;;;;5035252;28;20029;-73
2022/02/04 04:39:22;;;;;;;79.53;33.40;;;6.40;99.90;;;;;;5035203;28;20021;-73
2022/02/04 04:45:17;;;;;;;76.60;31.77;;;6.40;99.90;;;;;;5017707;28;20035;-73
2022/02/04 05:26:20;;;;;;;;;;;6.30;99.90;;;;;;5034750;28;20087;-73
2022/02/04 05:31:45;;;;;;;93.13;38.00;;;6.40;99.90;;;;;;5011627;28;20067;-74
2022/02/04 05:34:15;;;;;;;88.05;37.75;;;6.40;99.90;;;;;;5034155;28;20049;-74
2022/02/04 05:36:44;;;;;;;88.97;40.70;;;6.40;99.90;;;;;;5034123;28;20021;-74
2022/02/04 05:39:12;;;;;;;88.63;38.58;;;6.40;99.90;;;;;;5034055;28;20025;-74
2022/02/04 05:41:42;;;;;;;95.93;41.05;;;6.40;99.90;;;;;;5034222;28;20390;-73
2022/02/04 05:44:11;;;;;;;93.15;40.65;;;6.40;99.90;;;;;;5035137;28;20018;-73
2022/02/04 05:46:49;;;;;;;90.03;38.42;;;6.40;99.90;;;;;;5033947;28;20026;-73
2022/02/04 05:49:17;;;;;;;95.72;38.63;;;6.40;99.90;;;;;;5016205;28;20029;-73
2022/02/04 05:51:51;;;;;;;94.95;39.03;;;6.40;99.90;;;;;;5033749;28;20422;-73
2022/02/04 05:56:58;;;;;;;104.00;40.33;;;6.40;99.90;;;;;;5034349;28;20028;-73
2022/02/04 06:02:04;;;;;;;96.68;38.53;;;6.50;99.90;;;;;;5033723;28;20018;-73
2022/02/04 06:04:39;;;;;;;95.18;36.92;;;6.40;99.90;;;;;;5033669;28;20048;-73
2022/02/04 06:07:22;;;;;;;89.80;37.10;;;6.50;99.90;;;;;;5033938;28;20079;-73
2022/02/04 06:13:03;;;;;;;103.32;40.33;;;6.50;99.90;;;;;;5033804;28;20474;-73
2022/02/04 06:23:33;;;;;;;98.45;36.72;;;6.50;99.90;;;;;;5029967;28;20044;-73
2022/02/04 06:26:00;;;;;;;95.40;38.80;;;6.50;99.90;;;;;;5033368;28;20029;-73
2022/02/04 06:28:25;;;;;;;93.13;35.78;;;6.50;99.90;;;;;;5033066;28;20452;-73
2022/02/04 06:30:51;;;;;;;90.28;35.92;;;6.50;99.90;;;;;;5033168;28;20052;-73
2022/02/04 06:33:17;;;;;;;96.28;36.00;;;6.50;99.90;;;;;;5033830;28;20021;-73
2022/02/04 06:35:42;;;;;;;81.43;37.08;;;6.60;99.90;;;;;;5033250;28;20021;-73
2022/02/04 06:38:09;;;;;;;90.32;36.83;;;6.60;99.90;;;;;;5033255;28;20021;-73
2022/02/04 06:40:34;;;;;;;88.65;35.95;;;6.50;99.90;;;;;;5033466;28;20022;-73
2022/02/04 06:43:00;;;;;;;98.65;37.15;;;6.60;99.90;;;;;;5033479;28;20037;-73
2022/02/04 06:45:26;;;;;;;99.65;36.85;;;6.50;99.90;;;;;;5033162;28;20033;-73
2022/02/04 06:47:51;;;;;;;92.25;36.80;;;6.50;99.90;;;;;;5033163;28;20029;-73
2022/02/04 06:50:17;;;;;;;101.40;37.25;;;6.50;99.90;;;;;;5033059;28;20380;-73
2022/02/04 06:52:43;;;;;;;99.85;37.03;;;6.50;99.90;;;;;;5033633;28;20022;-73
2022/02/04 06:55:12;;;;;;;99.72;39.10;;;6.50;99.90;;;;;;5033347;28;20480;-73
2022/02/04 06:57:44;;;;;;;88.70;37.50;;;6.50;99.90;;;;;;5033091;28;20025;-72
2022/02/04 07:00:11;;;;;;;97.70;38.15;;;6.50;99.90;;;;;;5033477;28;20061;-72
2022/02/04 07:02:37;;;;;;;89.60;36.53;;;6.50;99.90;;;;;;5032971;28;20470;-72
2022/02/04 07:05:09;;;;;;;97.78;37.67;;;6.50;99.90;;;;;;5033056;28;20108;-73
2022/02/04 07:07:35;;;;;;;98.65;38.20;;;6.50;99.90;;;;;;5033050;28;20053;-73
2022/02/04 07:10:10;;;;;;;92.72;37.53;;;6.50;99.90;;;;;;5032816;28;20108;-73
2022/02/04 07:12:40;;;;;;;120.15;38.72;;;6.50;99.90;;;;;;5033277;28;20053;-73
2022/02/04 07:19:56;;;;;;;91.03;34.53;;;6.50;99.90;;;;;;5033121;28;20047;-73
2022/02/04 07:22:29;;;;;;;94.07;34.05;;;6.60;99.90;;;;;;5032830;28;20105;-73
2022/02/04 07:24:59;;;;;;;83.47;32.70;;;6.60;99.90;;;;;;5032886;28;20029;-73
2022/02/04 07:27:25;;;;;;;87.97;33.97;;;6.60;99.90;;;;;;5033402;28;20036;-73
2022/02/04 07:29:53;;;;;;;84.25;34.30;;;6.60;99.90;;;;;;5032631;28;20033;-73
2022/02/04 07:32:49;;;;;;;84.60;34.03;;;6.70;99.90;;;;;;5032915;28;20017;-73
2022/02/04 07:35:20;;;;;;;90.25;32.45;;;6.70;99.90;;;;;;5032210;28;20079;-73
2022/02/04 07:43:14;;;;;;;90.05;32.17;;;6.70;99.90;;;;;;5036879;28;20386;-73
2022/02/04 07:45:40;;;;;;;90.25;32.13;;;6.80;99.90;;;;;;5036738;28;20021;-73
2022/02/04 07:48:06;;;;;;;73.03;31.75;;;6.80;99.90;;;;;;5036193;28;20438;-73
2022/02/04 07:50:33;;;;;;;68.07;29.83;;;6.80;99.90;;;;;;5035947;28;20083;-73
2022/02/04 07:52:58;;;;;;;90.78;32.58;;;6.80;99.90;;;;;;5036057;28;20082;-73
2022/02/04 07:55:25;;;;;;;86.15;32.85;;;6.80;99.90;;;;;;5036316;28;20524;-73
2022/02/04 07:57:51;;;;;;;87.35;32.25;;;6.80;99.90;;;;;;5036239;28;20100;-73
2022/02/04 08:00:18;;;;;;;81.28;31.63;;;6.80;99.90;;;;;;5036049;28;20029;-73
2022/02/04 08:02:45;;;;;;;73.28;31.10;;;6.90;99.90;;;;;;5036375;28;20077;-74
2022/02/04 08:05:15;;;;;;;71.22;31.08;;;6.90;99.90;;;;;;5035856;28;20079;-74
2022/02/04 08:07:53;;;;;;;77.43;30.40;;;6.90;99.90;;;;;;5036271;28;20032;-74
2022/02/04 08:10:41;;;;;;;78.32;29.00;;;7.00;99.90;;;;;;5035656;28;20028;-74
2022/02/04 08:18:47;;;;;;;81.40;29.80;;;6.90;99.90;;;;;;5035658;28;20040;-74
2022/02/04 08:29:12;;;;;;;63.58;29.00;;;7.00;99.90;;;;;;5036066;28;20068;-74
2022/02/04 08:31:49;;;;;;;83.00;30.40;;;7.00;99.90;;;;;;5035345;28;20080;-74
2022/02/04 08:39:48;;;;;;;75.35;31.88;;;7.00;99.90;;;;;;5035261;28;20470;-74
2022/02/04 08:52:59;;;;;;;78.25;28.83;;;7.00;99.90;;;;;;5035060;28;19939;-74
2022/02/04 08:55:35;;;;;;;74.20;29.83;;;7.00;99.90;;;;;;5017225;28;20478;-74
2022/02/04 09:00:46;;;;;;;69.00;28.80;;;7.10;99.90;;;;;;5035060;28;20096;-74
2022/02/04 09:03:26;;;;;;;69.47;28.58;;;7.10;99.90;;;;;;5034866;28;20060;-74
2022/02/04 09:06:06;;;;;;;66.40;26.90;;;7.10;99.90;;;;;;5017032;28;20029;-75
2022/02/04 09:08:33;;;;;;;63.72;27.15;;;7.10;99.90;;;;;;5035056;28;20056;-74
2022/02/04 09:11:04;;;;;;;69.28;26.90;;;7.20;99.90;;;;;;5034674;28;20025;-74
2022/02/04 09:19:04;;;;;;;62.30;22.63;;;7.20;99.90;;;;;;5034835;28;19916;-75
2022/02/04 09:24:15;;;;;;;70.95;24.33;;;7.30;99.90;;;;;;5035023;28;20056;-74
2022/02/04 09:26:41;;;;;;;59.38;24.52;;;7.30;99.90;;;;;;5034659;28;20030;-74
2022/02/04 09:29:07;;;;;;;52.50;23.30;;;7.30;99.90;;;;;;5034774;28;20174;-74
2022/02/04 09:31:35;;;;;;;56.30;22.80;;;7.30;99.90;;;;;;5034803;28;20079;-74
2022/02/04 09:34:01;;;;;;;60.42;25.13;;;7.30;99.90;;;;;;5034187;28;20021;-74
2022/02/04 09:36:27;;;;;;;53.78;23.10;;;7.30;99.90;;;;;;5034413;28;20527;-75
2022/02/04 09:38:52;;;;;;;54.65;24.92;;;7.30;99.90;;;;;;5034090;28;20057;-75
2022/02/04 09:41:22;;;;;;;63.30;26.10;;;7.20;99.90;;;;;;5034110;28;20032;-74
2022/02/04 09:43:49;;;;;;;58.58;25.92;;;7.20;99.90;;;;;;5034142;28;20029;-75
2022/02/04 09:46:16;;;;;;;63.67;25.38;;;7.20;99.90;;;;;;5034361;28;20025;-74
2022/02/04 09:48:44;;;;;;;73.47;26.17;;;7.10;99.90;;;;;;5034038;28;20025;-74
2022/02/04 09:51:13;;;;;;;62.17;24.75;;;7.10;99.90;;;;;;5033728;28;20056;-74
2022/02/04 10:15:23;;;;;;;68.45;30.77;;;6.90;99.90;;;;;;5033603;28;20193;-75
2022/02/04 10:18:05;;;;;;;71.85;33.67;;;6.90;99.90;;;;;;5033833;28;20025;-74
2022/02/04 10:20:34;;;;;;;82.10;35.00;;;6.90;99.90;;;;;;5015745;28;20116;-75
2022/02/04 10:23:01;;;;;;;72.43;34.60;;;6.90;99.90;;;;;;5033584;28;20087;-75
2022/02/04 10:25:32;;;;;;;89.72;33.53;;;6.90;99.90;;;;;;5033482;28;20033;-75
2022/02/04 10:27:59;;;;;;;70.50;34.40;;;6.90;99.90;;;;;;5033662;28;20026;-75
2022/02/04 10:30:31;;;;;;;73.63;34.72;;;6.90;99.90;;;;;;5033265;28;20079;-75
2022/02/04 10:32:58;;;;;;;84.25;35.83;;;6.90;99.90;;;;;;5033382;28;20083;-75
2022/02/04 10:35:29;;;;;;;85.88;37.22;;;6.80;99.90;;;;;;5033282;28;20017;-75
2022/02/04 10:38:21;;;;;;;70.55;36.25;;;6.80;99.90;;;;;;5033556;28;20025;-75
2022/02/04 10:41:02;;;;;;;75.75;37.38;;;6.80;99.90;;;;;;5015563;28;20049;-75
2022/02/04 10:43:39;;;;;;;68.13;35.92;;;6.80;99.90;;;;;;5033568;28;20025;-75
2022/02/04 10:46:22;;;;;;;77.55;35.83;;;6.80;99.90;;;;;;5033522;28;20557;-76
2022/02/04 10:49:04;;;;;;;79.38;38.25;;;6.80;99.90;;;;;;5033453;28;20029;-76
2022/02/04 10:51:48;;;;;;;78.25;37.83;;;6.80;99.90;;;;;;5032990;28;20425;-76
2022/02/04 10:55:10;;;;;;;;;;;6.80;99.90;;;;;;5033865;28;20036;-76
2022/02/04 11:00:26;;;;;;;73.97;39.50;;;6.80;99.90;;;;;;5033355;28;20094;-75
2022/02/04 11:03:08;;;;;;;80.63;39.78;;;6.80;99.90;;;;;;5033381;28;20084;-76
2022/02/04 11:10:55;;;;;;;88.82;41.72;;;6.70;99.90;;;;;;5033160;28;20029;-76
2022/02/04 11:21:59;;;;;;;84.55;40.58;;;6.80;99.90;;;;;;5036151;28;20107;-76
2022/02/04 11:35:34;;;;;;;85.18;39.60;;;6.80;99.90;;;;;;5036914;28;20117;-76
2022/02/04 11:47:54;;;;;;;68.50;38.35;;;6.80;99.90;;;;;;5036379;28;20113;-76
2022/02/04 11:52:44;;;;;;;67.03;37.75;;;6.80;99.90;;;;;;5036409;28;20029;-75
2022/02/04 11:55:10;;;;;;;74.40;36.63;;;6.80;99.90;;;;;;5018403;28;20025;-75
2022/02/04 11:57:38;;;;;;;63.85;33.33;;;6.80;99.90;;;;;;5036575;28;20021;-75
2022/02/04 12:00:16;;;;;;;62.55;32.40;;;6.80;99.90;;;;;;5035947;28;20025;-76
2022/02/04 12:02:42;;;;;;;60.78;32.65;;;6.80;99.90;;;;;;5036203;28;20025;-76
2022/02/04 12:05:11;;;;;;;58.40;31.60;;;6.80;99.90;;;;;;5035940;28;20128;-76
2022/02/04 12:07:41;;;;;;;61.33;31.48;;;6.80;99.90;;;;;;5035924;28;20482;-76
2022/02/04 12:10:13;;;;;;;64.80;34.08;;;6.80;99.90;;;;;;5035981;28;20029;-76
2022/02/04 12:12:54;;;;;;;63.90;34.85;;;6.80;99.90;;;;;;5036021;28;20109;-76
2022/02/04 12:15:29;;;;;;;52.83;31.48;;;6.80;99.90;;;;;;5036024;28;20029;-76
2022/02/04 12:17:57;;;;;;;68.88;33.95;;;6.80;99.90;;;;;;5035669;28;20032;-76
2022/02/04 12:20:45;;;;;;;53.95;33.08;;;6.80;99.90;;;;;;5035519;28;20036;-76
2022/02/04 12:23:35;;;;;;;68.40;32.60;;;6.80;99.90;;;;;;5035841;28;20049;-76
2022/02/04 12:26:12;;;;;;;54.15;32.10;;;6.80;99.90;;;;;;5035053;28;20022;-76
2022/02/04 12:28:48;;;;;;;60.10;32.17;;;6.80;99.90;;;;;;5017739;28;20040;-75
2022/02/04 12:31:20;;;;;;;57.42;31.55;;;6.80;99.90;;;;;;5035577;28;20026;-75
2022/02/04 12:34:05;;;;;;;55.58;30.30;;;6.80;99.90;;;;;;5035544;28;20100;-76
2022/02/04 12:36:41;;;;;;;61.03;32.45;;;6.80;99.90;;;;;;5035623;28;20093;-76
2022/02/04 12:39:15;;;;;;;58.78;32.78;;;6.90;99.90;;;;;;5035880;28;20049;-75
2022/02/04 12:41:45;;;;;;;66.57;32.40;;;6.80;99.90;;;;;;5035071;28;20072;-76
2022/02/04 12:44:15;;;;;;;54.85;33.08;;;6.80;99.90;;;;;;5035178;28;20056;-75
2022/02/04 12:46:47;;;;;;;51.78;30.08;;;6.80;99.90;;;;;;5035417;28;20386;-75
2022/02/04 12:49:15;;;;;;;62.45;31.92;;;6.80;99.90;;;;;;5035418;28;20113;-75
2022/02/04 12:54:47;;;;;;;59.45;31.98;;;6.90;99.90;;;;;;5035623;28;20022;-76
2022/02/04 13:08:06;;;;;;;51.00;29.13;;;6.90;99.90;;;;;;5034809;28;20079;-76
2022/02/04 13:10:32;;;;;;;52.92;28.83;;;6.90;99.90;;;;;;5034564;28;20536;-76
2022/02/04 13:13:04;;;;;;;52.78;29.70;;;6.90;99.90;;;;;;5034899;28;20030;-76
2022/02/04 13:15:33;;;;;;;54.65;29.73;;;6.90;99.90;;;;;;5034556;28;20088;-76
2022/02/04 13:17:59;;;;;;;55.50;28.60;;;6.90;99.90;;;;;;5034531;28;20104;-75
2022/02/04 13:20:26;;;;;;;63.70;28.92;;;6.90;99.90;;;;;;5034706;28;20521;-75
2022/02/04 13:23:00;;;;;;;52.75;27.88;;;7.00;99.90;;;;;;5034422;28;20044;-75
2022/02/04 13:25:34;;;;;;;45.78;28.45;;;7.00;99.90;;;;;;5034737;28;20079;-76
2022/02/04 13:28:14;;;;;;;49.63;27.38;;;6.90;99.90;;;;;;5034326;28;20017;-76
2022/02/04 13:31:03;;;;;;;50.90;27.50;;;7.00;99.90;;;;;;5034298;28;20084;-76
2022/02/04 13:33:46;;;;;;;45.83;25.17;;;6.90;99.90;;;;;;5034243;28;20022;-76
2022/02/04 13:36:33;;;;;;;53.38;28.85;;;7.00;99.90;;;;;;5034230;28;20105;-75
2022/02/04 13:42:14;;;;;;;56.15;25.65;;;7.00;99.90;;;;;;5034387;28;20037;-76
2022/02/04 13:44:51;;;;;;;54.63;27.20;;;7.00;99.90;;;;;;5034344;28;20017;-76
2022/02/04 13:47:48;;;;;;;49.50;25.70;;;7.00;99.90;;;;;;5034311;28;20021;-76
2022/02/04 13:50:25;;;;;;;42.35;25.80;;;7.00;99.90;;;;;;5033381;28;20051;-76
2022/02/04 13:53:13;;;;;;;50.05;26.77;;;7.00;99.90;;;;;;5034184;28;20029;-76
2022/02/04 13:58:31;;;;;;;47.08;25.13;;;7.00;99.90;;;;;;5034170;28;20029;-75
2022/02/04 14:01:21;;;;;;;19.35;9.32;;;7.00;99.90;;;;;;5033845;28;20394;-76
2022/02/04 14:03:51;;;;;;;6.93;3.28;;;6.60;99.90;;;;;;5034044;28;20029;-76
2022/02/04 14:06:21;;;;;;;15.20;4.15;;;6.10;99.90;;;;;;5034018;28;20063;-76
2022/02/04 14:11:42;;;;;;;7.90;3.65;;;5.70;99.90;;;;;;5033806;28;20075;-76
2022/02/04 14:14:26;;;;;;;9.88;3.30;;;5.50;99.90;;;;;;5033909;28;20017;-76
2022/02/04 14:16:54;;;;;;;8.68;1.77;;;5.30;99.90;;;;;;5033844;28;20128;-76
2022/02/04 14:19:20;;;;;;;6.18;1.88;;;5.30;99.90;;;;;;5033636;28;20497;-76
2022/02/04 14:21:46;;;;;;;9.80;2.30;;;5.20;99.90;;;;;;5033791;28;20116;-76
2022/02/04 14:24:12;;;;;;;9.23;1.50;;;5.20;99.90;;;;;;5033460;28;20554;-76
2022/02/04 14:26:48;;;;;;;8.52;1.55;;;5.00;99.90;;;;;;5033729;28;20026;-76
2022/02/04 14:29:28;;;;;;;12.43;4.72;;;4.90;99.90;;;;;;5033533;28;20100;-76
2022/02/04 14:32:11;;;;;;;5.72;0.80;;;4.70;99.90;;;;;;5033371;28;20025;-76
2022/02/04 14:34:53;;;;;;;10.30;0.93;;;4.50;99.90;;;;;;5033640;28;20017;-76
2022/02/04 14:37:39;;;;;;;0.95;0.60;;;4.50;99.90;;;;;;5033309;28;20478;-76
2022/02/04 14:51:44;;;;;;;7.95;1.42;;;4.20;99.90;;;;;;5037821;28;20045;-77
2022/02/04 14:54:02;;;;;;;3.33;1.30;;;4.20;99.90;;;;;;5037440;28;20115;-77
2022/02/04 15:00:03;;;;;;;2.42;1.20;;;4.10;99.90;;;;;;5038439;28;20033;-76
2022/02/04 15:02:10;;;;;;;2.28;1.00;;;4.10;99.90;;;;;;5037726;28;20087;-77
2022/02/04 15:04:42;;;;;;;4.93;1.02;;;4.00;99.90;;;;;;5038286;28;20088;-77
2022/02/04 15:07:09;;;;;;;6.47;1.98;;;4.00;99.90;;;;;;5038377;28;20516;-77
2022/02/04 15:09:37;;;;;;;4.22;2.88;;;4.00;99.90;;;;;;5037897;28;20385;-77
2022/02/04 15:12:03;;;;;;;3.05;1.00;;;3.90;99.90;;;;;;5037928;28;20417;-77
2022/02/04 15:14:28;;;;;;;2.90;1.05;;;3.80;99.90;;;;;;5037549;28;20028;-77
2022/02/04 15:16:54;;;;;;;10.93;1.35;;;3.80;99.90;;;;;;5037870;28;20462;-77
2022/02/04 15:19:20;;;;;;;8.90;1.27;;;3.80;99.90;;;;;;5038163;28;20056;-77
2022/02/04 15:21:48;;;;;;;7.43;1.15;;;3.70;99.90;;;;;;5037185;28;20367;-77
2022/02/04 15:24:13;;;;;;;1.42;0.60;;;3.70;99.90;;;;;;5037554;28;20017;-77
2022/02/04 15:26:40;;;;;;;6.55;1.10;;;3.60;99.90;;;;;;5037568;28;20099;-77
2022/02/04 15:29:12;;;;;;;2.60;0.60;;;3.50;99.90;;;;;;5037428;28;20072;-77
2022/02/04 15:31:48;;;;;;;3.22;0.75;;;3.50;99.90;;;;;;5037276;28;20028;-77
2022/02/04 15:34:15;;;;;;;1.67;1.45;;;3.40;99.90;;;;;;5037689;28;20018;-77
2022/02/04 15:36:45;;;;;;;8.10;1.23;;;3.30;99.90;;;;;;5037503;28;20021;-76
2022/02/04 15:39:22;;;;;;;3.47;0.70;;;3.30;99.90;;;;;;5037557;28;20032;-77
2022/02/04 15:41:53;;;;;;;4.93;0.98;;;3.30;99.90;;;;;;5037835;28;20075;-77
2022/02/04 15:58:31;;;;;;;;;;;2.90;99.90;;;;;;5037428;28;20028;-77
2022/02/04 16:05:42;;;;;;;55.50;17.65;;;2.70;99.90;;;;;;5036568;28;20539;-76
2022/02/04 16:08:11;;;;;;;24.33;10.27;;;2.60;99.90;;;;;;5036555;28;20055;-77
2022/02/04 16:10:50;;;;;;;57.75;31.20;;;2.60;99.90;;;;;;5036650;28;20025;-77
2022/02/04 16:13:39;;;;;;;14.77;5.82;;;2.50;99.90;;;;;;5036664;28;20378;-77
2022/02/04 16:16:28;;;;;;;24.85;12.90;;;2.50;99.90;;;;;;5036434;28;20018;-77
2022/02/04 16:19:05;;;;;;;5.43;1.30;;;2.50;99.90;;;;;;5036247;28;20040;-77
2022/02/04 16:21:43;;;;;;;16.83;4.35;;;2.50;99.90;;;;;;5036017;28;20024;-77
2022/02/04 16:27:11;;;;;;;6.28;1.35;;;2.40;99.90;;;;;;5035877;28;20026;-77
2022/02/04 16:29:39;;;;;;;21.15;4.82;;;2.40;99.90;;;;;;5035483;28;20155;-75
2022/02/04 16:32:06;;;;;;;81.95;17.10;;;2.30;99.90;;;;;;5035657;28;20042;-75
2022/02/04 16:34:31;;;;;;;45.33;9.10;;;2.30;99.90;;;;;;5035477;28;20033;-75
2022/02/04 16:37:03;;;;;;;17.40;4.68;;;2.20;99.90;;;;;;5035384;28;20033;-75
2022/02/04 16:39:29;;;;;;;3.22;1.58;;;2.20;99.90;;;;;;5035575;28;20487;-75
2022/02/04 16:42:10;;;;;;;3.97;2.08;;;2.10;99.90;;;;;;5035547;28;20021;-75
2022/02/04 16:44:36;;;;;;;11.60;4.32;;;2.10;99.90;;;;;;5035794;28;20462;-75
2022/02/04 16:47:03;;;;;;;4.22;1.10;;;2.00;99.90;;;;;;5035432;28;20083;-76
2022/02/04 16:49:30;;;;;;;21.60;5.45;;;2.10;99.90;;;;;;5035455;28;20381;-76
2022/02/04 16:51:56;;;;;;;4.00;0.85;;;2.10;99.90;;;;;;5035113;28;20099;-76
2022/02/04 16:54:24;;;;;;;11.32;1.65;;;2.20;99.90;;;;;;5035063;28;20409;-76
2022/02/04 16:56:54;;;;;;;2.97;1.33;;;2.10;99.90;;;;;;5034954;28;20089;-75
2022/02/04 16:59:20;;;;;;;4.80;1.40;;;2.20;99.90;;;;;;5034939;28;20026;-76
2022/02/04 17:01:46;;;;;;;7.03;1.48;;;2.20;99.90;;;;;;5034876;28;20029;-76
2022/02/04 17:04:13;;;;;;;44.13;9.60;;;2.10;99.90;;;;;;5034833;28;20029;-75
2022/02/04 17:06:42;;;;;;;30.98;6.78;;;2.20;99.90;;;;;;5034762;28;20025;-75
2022/02/04 17:11:45;;;;;;;20.05;4.63;;;2.20;99.90;;;;;;5035083;28;20061;-75
2022/02/04 17:14:12;;;;;;;23.92;5.65;;;2.20;99.90;;;;;;5034938;28;20021;-75
2022/02/04 17:16:42;;;;;;;9.15;3.47;;;2.20;99.90;;;;;;5034565;28;20053;-75
2022/02/04 17:19:11;;;;;;;4.07;1.45;;;2.20;99.90;;;;;;5034580;28;20071;-75
2022/02/04 17:21:39;;;;;;;32.05;9.85;;;2.20;99.90;;;;;;5034704;28;20466;-75
2022/02/04 17:24:05;;;;;;;6.15;1.75;;;2.20;99.90;;;;;;5034476;28;20124;-75
2022/02/04 17:26:31;;;;;;;28.50;6.13;;;2.30;99.90;;;;;;5016701;28;20486;-75
2022/02/04 17:28:57;;;;;;;36.95;8.70;;;2.30;99.90;;;;;;5034600;28;20040;-75
2022/02/04 17:31:23;;;;;;;23.52;6.97;;;2.30;99.90;;;;;;5034191;28;20036;-75
2022/02/04 17:33:49;;;;;;;19.88;5.93;;;2.30;99.90;;;;;;5034239;28;20092;-75
2022/02/04 17:36:14;;;;;;;13.80;2.20;;;2.40;99.90;;;;;;5034783;28;20064;-75
2022/02/04 17:38:42;;;;;;;5.28;1.50;;;2.30;99.90;;;;;;5034222;28;20033;-75
2022/02/04 17:41:09;;;;;;;16.90;2.45;;;2.30;99.90;;;;;;5034097;28;20021;-75
2022/02/04 17:43:35;;;;;;;5.47;1.80;;;2.30;99.90;;;;;;5034124;28;20026;-75
2022/02/04 17:46:01;;;;;;;8.98;2.03;;;2.30;99.90;;;;;;5034330;28;20453;-75
2022/02/04 17:51:32;;;;;;;7.68;1.30;;;2.30;99.90;;;;;;5033889;28;20044;-75
2022/02/04 17:53:59;;;;;;;9.68;2.95;;;2.30;99.90;;;;;;5033917;28;20029;-76
2022/02/04 17:56:38;;;;;;;13.45;2.92;;;2.30;99.90;;;;;;5034166;28;20043;-76
2022/02/04 18:01:36;;;;;;;16.75;2.38;;;2.30;99.90;;;;;;5033749;28;20408;-75
2022/02/04 18:09:42;;;;;;;29.40;2.83;;;2.30;99.90;;;;;;5017857;28;20060;-75
2022/02/04 18:12:09;;;;;;;6.45;1.83;;;2.30;99.90;;;;;;5034089;28;20104;-75
2022/02/04 18:14:35;;;;;;;6.20;1.65;;;2.20;99.90;;;;;;5033539;28;20079;-75
2022/02/04 18:17:00;;;;;;;14.05;1.63;;;2.20;99.90;;;;;;5033758;28;20033;-75
2022/02/04 18:19:26;;;;;;;13.77;2.10;;;2.20;99.90;;;;;;5033534;28;20025;-75
2022/02/04 18:21:52;;;;;;;14.95;2.00;;;2.20;99.90;;;;;;5033504;28;20025;-75
2022/02/04 18:24:17;;;;;;;15.65;1.65;;;2.20;99.90;;;;;;5032976;28;20029;-75
2022/02/04 18:26:44;;;;;;;17.33;1.90;;;2.20;99.90;;;;;;5033431;28;20022;-75
2022/02/04 18:29:10;;;;;;;15.60;1.30;;;2.10;99.90;;;;;;5033398;28;20021;-75
2022/02/04 18:31:36;;;;;;;8.80;1.98;;;2.10;99.90;;;;;;5033263;28;20474;-75
2022/02/04 18:34:04;;;;;;;7.03;1.65;;;2.10;99.90;;;;;;5033356;28;20589;-75
2022/02/04 18:36:30;;;;;;;14.00;1.45;;;2.10;99.90;;;;;;5033598;28;20390;-75
2022/02/04 18:39:12;;;;;;;16.85;1.85;;;2.00;99.90;;;;;;5033304;28;20017;-76